createdAt,value
2018-08-13T00:01:37.309Z,100163.06
2018-08-13T00:04:05.736Z,100155.83
2018-08-13T00:06:34.209Z,100152.55
2018-08-13T00:09:02.753Z,100156.03
2018-08-13T00:11:31.181Z,100153.23
2018-08-13T00:13:59.667Z,100151.09
2018-08-13T00:16:28.115Z,100148.80
2018-08-13T00:18:56.554Z,100143.93
2018-08-13T00:21:24.978Z,100143.37
2018-08-13T00:23:53.362Z,100143.48
2018-08-13T00:26:21.832Z,100140.44
2018-08-13T00:28:50.296Z,100138.54
2018-08-13T00:31:18.725Z,100140.48
2018-08-13T00:33:47.142Z,100137.59
2018-08-13T00:36:15.553Z,100132.02
2018-08-13T00:38:44.013Z,100117.48
2018-08-13T00:41:12.440Z,100119.72
2018-08-13T00:43:40.852Z,100111.11
2018-08-13T00:46:09.332Z,100113.94
2018-08-13T00:48:37.788Z,100113.79
2018-08-13T00:51:06.273Z,100108.16
2018-08-13T00:53:34.724Z,100103.65
2018-08-13T00:56:03.228Z,100108.92
2018-08-13T00:58:31.699Z,100106.73
2018-08-13T01:01:00.122Z,100107.45
2018-08-13T01:03:28.608Z,100108.73
2018-08-13T01:05:57.186Z,100106.15
2018-08-13T01:08:25.636Z,100101.23
2018-08-13T01:10:54.049Z,100093.37
2018-08-13T01:13:22.476Z,100086.34
2018-08-13T01:15:50.900Z,100073.88
2018-08-13T01:18:19.316Z,100077.13
2018-08-13T01:20:47.739Z,100074.48
2018-08-13T01:23:16.232Z,100077.36
2018-08-13T01:25:44.633Z,100075.70
2018-08-13T01:28:13.052Z,100077.06
2018-08-13T01:30:41.567Z,100074.92
2018-08-13T01:33:10.012Z,100071.78
2018-08-13T01:35:38.457Z,100034.20
2018-08-13T01:38:06.885Z,100058.77
2018-08-13T01:40:35.333Z,100058.28
2018-08-13T01:43:03.784Z,100053.50
2018-08-13T01:45:32.210Z,100055.20
2018-08-13T01:48:00.645Z,100054.34
2018-08-13T01:50:29.115Z,100050.61
2018-08-13T01:52:57.543Z,100044.58
2018-08-13T01:55:26.002Z,100044.19
2018-08-13T01:57:54.466Z,100043.48
2018-08-13T02:00:22.973Z,100047.37
2018-08-13T02:02:51.444Z,100046.87
2018-08-13T02:05:19.881Z,100035.32
2018-08-13T02:07:48.342Z,100030.94
2018-08-13T02:10:16.811Z,100027.61
2018-08-13T02:12:45.276Z,100034.73
2018-08-13T02:15:13.727Z,100041.02
2018-08-13T02:17:42.191Z,100040.17
2018-08-13T02:20:11.476Z,100040.02
2018-08-13T02:22:39.916Z,100047.48
2018-08-13T02:25:08.960Z,100046.45
2018-08-13T02:27:37.530Z,100032.05
2018-08-13T02:30:08.371Z,100028.77
2018-08-13T02:32:36.933Z,100016.13
2018-08-13T02:35:06.382Z,100015.16
2018-08-13T02:37:34.840Z,99995.29
2018-08-13T02:40:03.279Z,99985.78
2018-08-13T02:42:31.738Z,99983.63
2018-08-13T02:45:00.139Z,99981.66
2018-08-13T02:47:28.576Z,99975.98
2018-08-13T02:49:57.014Z,99964.39
2018-08-13T02:52:25.477Z,99968.77
2018-08-13T02:54:53.942Z,99976.03
2018-08-13T02:57:22.389Z,99970.85
2018-08-13T02:59:51.391Z,99971.81
2018-08-13T03:02:19.806Z,99964.28
2018-08-13T03:04:48.336Z,99966.08
2018-08-13T03:07:16.795Z,99970.31
2018-08-13T03:09:45.280Z,99970.66
2018-08-13T03:12:13.711Z,99962.80
2018-08-13T03:14:42.129Z,99967.31
2018-08-13T03:17:12.099Z,99959.34
2018-08-13T03:19:40.568Z,99956.56
2018-08-13T03:22:08.981Z,99961.22
2018-08-13T03:24:37.780Z,99968.72
2018-08-13T03:27:06.313Z,99990.66
2018-08-13T03:29:34.781Z,100005.80
2018-08-13T03:32:03.488Z,100008.74
2018-08-13T03:34:31.928Z,100022.84
2018-08-13T03:37:00.416Z,100023.05
2018-08-13T03:39:28.925Z,100021.14
2018-08-13T03:41:57.361Z,100039.88
2018-08-13T03:44:25.811Z,100045.85
2018-08-13T03:46:54.194Z,100034.53
2018-08-13T03:49:22.624Z,100048.95
2018-08-13T03:51:51.080Z,100050.43
2018-08-13T03:54:19.530Z,100036.03
2018-08-13T03:56:48.052Z,100037.00
2018-08-13T03:59:16.506Z,100041.18
2018-08-13T04:01:45.005Z,100042.72
2018-08-13T04:04:13.481Z,100047.75
2018-08-13T04:06:41.950Z,100045.08
2018-08-13T04:09:10.344Z,100051.45
2018-08-13T04:11:39.440Z,100051.35
2018-08-13T04:14:08.901Z,100052.14
2018-08-13T04:16:38.543Z,100062.47
2018-08-13T04:19:07.726Z,100075.98
2018-08-13T04:21:36.428Z,100082.17
2018-08-13T04:24:04.941Z,100085.27
2018-08-13T04:26:33.410Z,100086.73
2018-08-13T04:29:01.882Z,100083.10
2018-08-13T04:31:30.334Z,100096.66
2018-08-13T04:33:58.754Z,100096.18
2018-08-13T04:36:27.193Z,100099.77
2018-08-13T04:38:56.257Z,100106.91
2018-08-13T04:41:24.716Z,100125.24
2018-08-13T04:43:53.116Z,100120.31
2018-08-13T04:46:21.589Z,100113.93
2018-08-13T04:48:50.044Z,100115.42
2018-08-13T04:51:18.528Z,100098.63
2018-08-13T04:53:46.993Z,100098.61
2018-08-13T04:56:15.449Z,100101.95
2018-08-13T04:58:43.903Z,100108.97
2018-08-13T05:01:12.352Z,100112.78
2018-08-13T05:03:40.857Z,100104.97
2018-08-13T05:06:09.379Z,100102.11
2018-08-13T05:08:37.944Z,100111.61
2018-08-13T05:11:06.348Z,100110.31
2018-08-13T05:13:34.827Z,100106.79
2018-08-13T05:16:03.281Z,100095.88
2018-08-13T05:18:31.774Z,100083.15
2018-08-13T05:21:00.233Z,100076.53
2018-08-13T05:23:28.641Z,100073.95
2018-08-13T05:25:57.100Z,100070.05
2018-08-13T05:28:25.596Z,100066.63
2018-08-13T05:30:54.089Z,100070.94
2018-08-13T05:33:22.569Z,100072.65
2018-08-13T05:35:51.032Z,100071.85
2018-08-13T05:38:19.528Z,100075.83
2018-08-13T05:40:47.922Z,100073.64
2018-08-13T05:43:16.428Z,100067.52
2018-08-13T05:45:44.869Z,100107.66
2018-08-13T05:48:13.310Z,100117.17
2018-08-13T05:50:41.776Z,100139.19
2018-08-13T05:53:10.296Z,100135.70
2018-08-13T05:55:38.701Z,100135.25
2018-08-13T05:58:07.188Z,100140.61
2018-08-13T06:00:35.642Z,100118.55
2018-08-13T06:03:04.175Z,100110.83
2018-08-13T06:05:32.544Z,100101.37
2018-08-13T06:08:01.028Z,100098.78
2018-08-13T06:10:29.470Z,100090.61
2018-08-13T06:12:58.006Z,100064.77
2018-08-13T06:15:26.417Z,100049.72
2018-08-13T06:17:54.825Z,100018.77
2018-08-13T06:20:23.271Z,99992.03
2018-08-13T06:22:51.703Z,99965.63
2018-08-13T06:25:20.106Z,99972.80
2018-08-13T06:27:48.538Z,99961.34
2018-08-13T06:30:17.003Z,99968.05
2018-08-13T06:32:45.464Z,99964.36
2018-08-13T06:35:14.690Z,99967.34
2018-08-13T06:37:43.818Z,99969.03
2018-08-13T06:40:12.728Z,99977.20
2018-08-13T06:42:41.203Z,99971.55
2018-08-13T06:45:10.600Z,99979.80
2018-08-13T06:47:39.822Z,99995.34
2018-08-13T06:50:10.471Z,99992.75
2018-08-13T06:52:38.928Z,99992.63
2018-08-13T06:55:07.507Z,100002.87
2018-08-13T06:57:36.391Z,100008.75
2018-08-13T07:00:07.519Z,100010.84
2018-08-13T07:02:35.941Z,100024.69
2018-08-13T07:05:05.002Z,100026.34
2018-08-13T07:07:33.501Z,100024.47
2018-08-13T07:10:01.906Z,100030.00
2018-08-13T07:12:30.405Z,100036.72
2018-08-13T07:14:59.281Z,100031.09
2018-08-13T07:17:28.584Z,100035.30
2018-08-13T07:19:57.063Z,100041.23
2018-08-13T07:22:25.633Z,100053.59
2018-08-13T07:24:54.001Z,100058.22
2018-08-13T07:27:22.433Z,100061.20
2018-08-13T07:29:51.419Z,100069.77
2018-08-13T07:32:19.955Z,100078.78
2018-08-13T07:34:48.684Z,100083.52
2018-08-13T07:37:17.148Z,100087.53
2018-08-13T07:39:45.555Z,100091.42
2018-08-13T07:42:14.256Z,100097.60
2018-08-13T07:44:42.712Z,100102.29
2018-08-13T07:47:11.920Z,100099.00
2018-08-13T07:49:40.544Z,100102.49
2018-08-13T07:52:09.089Z,100099.75
2018-08-13T07:54:37.565Z,100101.94
2018-08-13T07:57:06.001Z,100104.94
2018-08-13T07:59:34.568Z,100099.05
2018-08-13T08:02:03.059Z,100099.37
2018-08-13T08:04:31.556Z,100102.95
2018-08-13T08:07:00.482Z,100105.25
2018-08-13T08:09:29.114Z,100114.44
2018-08-13T08:11:57.643Z,100107.45
2018-08-13T08:14:26.150Z,100112.18
2018-08-13T08:16:54.620Z,100110.79
2018-08-13T08:19:23.186Z,100092.75
2018-08-13T08:21:51.644Z,100104.47
2018-08-13T08:24:20.125Z,100120.42
2018-08-13T08:26:48.716Z,100119.45
2018-08-13T08:29:17.177Z,100105.95
2018-08-13T08:31:45.658Z,100105.51
2018-08-13T08:34:14.134Z,100107.80
2018-08-13T08:36:42.608Z,100100.33
2018-08-13T08:39:13.279Z,100101.22
2018-08-13T08:41:41.874Z,100109.84
2018-08-13T08:44:10.974Z,100104.66
2018-08-13T08:46:39.951Z,100105.51
2018-08-13T08:49:08.652Z,100101.17
2018-08-13T08:51:38.432Z,100089.47
2018-08-13T08:54:07.224Z,100100.52
2018-08-13T08:56:35.837Z,100095.48
2018-08-13T08:59:04.592Z,100107.03
2018-08-13T09:01:33.724Z,100106.67
2018-08-13T09:04:02.214Z,100099.92
2018-08-13T09:06:30.734Z,100100.36
2018-08-13T09:08:59.249Z,100105.95
2018-08-13T09:11:27.730Z,100105.16
2018-08-13T09:13:56.342Z,100103.41
2018-08-13T09:16:24.832Z,100107.65
2018-08-13T09:19:04.515Z,100119.77
2018-08-13T09:21:36.124Z,100120.17
2018-08-13T09:24:16.552Z,100117.12
2018-08-13T09:26:56.276Z,100120.88
2018-08-13T09:29:36.035Z,100119.70
2018-08-13T09:32:26.930Z,100111.69
2018-08-13T09:35:02.409Z,100109.16
2018-08-13T09:37:30.923Z,100103.27
2018-08-13T09:39:59.316Z,100110.21
2018-08-13T09:42:27.847Z,100102.48
2018-08-13T09:44:56.284Z,100091.16
2018-08-13T09:47:25.002Z,100092.75
2018-08-13T09:49:53.497Z,100094.78
2018-08-13T09:52:21.947Z,100094.16
2018-08-13T09:54:50.434Z,100098.44
2018-08-13T09:57:18.942Z,100087.66
2018-08-13T09:59:47.434Z,100084.75
2018-08-13T10:02:15.876Z,100073.41
2018-08-13T10:04:44.320Z,100076.63
2018-08-13T10:07:12.704Z,100070.16
2018-08-13T10:09:41.168Z,100068.52
2018-08-13T10:12:09.701Z,100065.61
2018-08-13T10:14:38.093Z,100060.80
2018-08-13T10:17:06.531Z,100059.33
2018-08-13T10:19:34.946Z,100061.27
2018-08-13T10:22:03.408Z,100061.99
2018-08-13T10:24:31.820Z,100063.56
2018-08-13T10:27:00.380Z,100063.75
2018-08-13T10:29:28.793Z,100062.51
2018-08-13T10:31:57.364Z,100057.77
2018-08-13T10:34:25.870Z,100052.69
2018-08-13T10:36:54.345Z,100053.53
2018-08-13T10:39:22.772Z,100056.59
2018-08-13T10:41:51.229Z,100049.34
2018-08-13T10:44:19.786Z,100053.20
2018-08-13T10:46:48.172Z,100042.17
2018-08-13T10:49:17.506Z,100038.06
2018-08-13T10:51:45.941Z,100038.78
2018-08-13T10:54:14.416Z,100037.87
2018-08-13T10:56:42.905Z,100038.66
2018-08-13T10:59:11.378Z,100033.78
2018-08-13T11:01:40.041Z,100039.74
2018-08-13T11:04:08.497Z,100038.03
2018-08-13T11:06:36.985Z,100039.27
2018-08-13T11:09:08.348Z,100034.09
2018-08-13T11:11:38.467Z,100029.63
2018-08-13T11:14:06.997Z,100026.33
2018-08-13T11:16:35.453Z,100022.92
2018-08-13T11:19:04.145Z,100023.44
2018-08-13T11:21:33.029Z,100023.36
2018-08-13T11:24:01.482Z,100019.40
2018-08-13T11:26:29.960Z,100008.41
2018-08-13T11:28:58.470Z,100014.92
2018-08-13T11:31:27.002Z,100009.98
2018-08-13T11:33:55.462Z,100019.44
2018-08-13T11:36:23.924Z,100006.75
2018-08-13T11:38:52.423Z,100001.76
2018-08-13T11:41:20.929Z,100003.70
2018-08-13T11:43:49.533Z,100000.57
2018-08-13T11:46:18.198Z,99983.45
2018-08-13T11:48:46.617Z,99990.12
2018-08-13T11:51:15.160Z,99970.78
2018-08-13T11:53:43.677Z,99974.68
2018-08-13T11:56:12.117Z,99967.47
2018-08-13T11:58:40.651Z,99944.64
2018-08-13T12:01:09.303Z,99946.46
2018-08-13T12:03:37.595Z,99931.84
2018-08-13T12:06:06.079Z,99917.55
2018-08-13T12:08:34.543Z,99927.25
2018-08-13T12:11:02.963Z,99949.46
2018-08-13T12:13:31.360Z,99975.70
2018-08-13T12:15:59.836Z,99979.22
2018-08-13T12:18:29.147Z,99981.04
2018-08-13T12:20:57.584Z,99992.66
2018-08-13T12:23:26.235Z,100011.66
2018-08-13T12:25:54.654Z,100010.34
2018-08-13T12:28:23.136Z,100017.73
2018-08-13T12:30:51.614Z,100017.92
2018-08-13T12:33:20.029Z,99990.62
2018-08-13T12:35:48.517Z,100009.44
2018-08-13T12:38:16.937Z,100030.70
2018-08-13T12:40:45.457Z,100009.06
2018-08-13T12:43:13.992Z,100013.91
2018-08-13T12:45:42.386Z,100018.83
2018-08-13T12:48:10.870Z,100012.20
2018-08-13T12:50:39.300Z,100014.86
2018-08-13T12:53:07.916Z,100016.14
2018-08-13T12:55:36.447Z,100018.72
2018-08-13T12:58:05.083Z,100013.67
2018-08-13T13:00:33.548Z,99994.13
2018-08-13T13:03:02.053Z,99992.50
2018-08-13T13:05:30.564Z,99991.81
2018-08-13T13:07:58.980Z,99985.81
2018-08-13T13:10:27.403Z,100005.06
2018-08-13T13:12:55.900Z,99998.99
2018-08-13T13:15:24.356Z,100005.70
2018-08-13T13:17:52.843Z,99994.10
2018-08-13T13:20:22.518Z,99972.88
2018-08-13T13:22:51.448Z,99990.98
2018-08-13T13:25:20.272Z,99990.68
2018-08-13T13:27:48.797Z,100000.17
2018-08-13T13:30:17.793Z,99991.38
2018-08-13T13:32:46.499Z,100007.08
2018-08-13T13:35:16.419Z,99999.16
2018-08-13T13:37:44.880Z,100005.48
2018-08-13T13:40:15.606Z,99996.74
2018-08-13T13:42:44.079Z,99997.52
2018-08-13T13:45:13.157Z,99990.14
2018-08-13T13:47:41.592Z,99981.30
2018-08-13T13:50:12.400Z,99977.87
2018-08-13T13:52:40.803Z,99972.99
2018-08-13T13:55:09.993Z,99965.42
2018-08-13T13:57:38.524Z,99961.94
2018-08-13T14:00:10.949Z,99963.58
2018-08-13T14:02:39.452Z,99961.05
2018-08-13T14:05:07.903Z,99968.02
2018-08-13T14:07:36.404Z,99957.41
2018-08-13T14:10:06.017Z,99999.88
2018-08-13T14:12:34.464Z,100034.74
2018-08-13T14:15:02.936Z,100063.28
2018-08-13T14:17:31.435Z,100056.09
2018-08-13T14:19:59.899Z,100086.24
2018-08-13T14:22:28.355Z,100087.02
2018-08-13T14:24:56.881Z,100070.06
2018-08-13T14:27:25.416Z,100077.66
2018-08-13T14:29:53.913Z,100071.05
2018-08-13T14:32:22.404Z,100063.52
2018-08-13T14:34:50.922Z,100057.80
2018-08-13T14:37:19.353Z,100051.03
2018-08-13T14:39:47.876Z,100046.63
2018-08-13T14:42:16.570Z,100053.19
2018-08-13T14:44:45.034Z,100063.19
2018-08-13T14:47:13.580Z,100063.64
2018-08-13T14:49:42.039Z,100062.81
2018-08-13T14:52:10.506Z,100067.74
2018-08-13T14:54:38.989Z,100073.97
2018-08-13T14:57:07.459Z,100077.69
2018-08-13T14:59:35.996Z,100080.97
2018-08-13T15:02:04.471Z,100079.80
2018-08-13T15:04:32.983Z,100081.05
2018-08-13T15:07:01.459Z,100077.42
2018-08-13T15:09:30.561Z,100070.09
2018-08-13T15:11:58.969Z,100073.41
2018-08-13T15:14:27.573Z,100066.53
2018-08-13T15:16:56.085Z,100049.40
2018-08-13T15:19:24.642Z,100055.21
2018-08-13T15:21:53.084Z,100051.07
2018-08-13T15:24:21.601Z,100043.28
2018-08-13T15:26:50.053Z,100038.54
2018-08-13T15:29:18.603Z,100044.37
2018-08-13T15:31:47.064Z,100047.33
2018-08-13T15:34:15.540Z,100052.38
2018-08-13T15:36:43.992Z,100048.03
2018-08-13T15:39:13.296Z,100052.62
2018-08-13T15:41:41.753Z,100049.84
2018-08-13T15:44:10.164Z,100054.31
2018-08-13T15:46:38.685Z,100049.64
2018-08-13T15:49:07.159Z,100054.44
2018-08-13T15:51:35.605Z,100060.58
2018-08-13T15:54:04.102Z,100055.20
2018-08-13T15:56:32.509Z,100059.45
2018-08-13T15:59:00.954Z,100068.03
2018-08-13T16:01:29.441Z,100076.20
2018-08-13T16:03:57.872Z,100092.33
2018-08-13T16:06:26.294Z,100093.01
2018-08-13T16:08:54.729Z,100092.48
2018-08-13T16:11:23.588Z,100092.14
2018-08-13T16:13:52.180Z,100087.46
2018-08-13T16:16:20.640Z,100056.80
2018-08-13T16:18:49.238Z,100081.25
2018-08-13T16:21:17.723Z,100075.66
2018-08-13T16:23:46.179Z,100074.59
2018-08-13T16:26:14.645Z,100083.05
2018-08-13T16:28:43.135Z,100074.63
2018-08-13T16:31:11.606Z,100075.03
2018-08-13T16:33:40.112Z,100066.28
2018-08-13T16:36:10.718Z,100066.44
2018-08-13T16:38:39.223Z,100071.39
2018-08-13T16:41:07.920Z,100063.08
2018-08-13T16:46:19.785Z,100057.73
2018-08-13T16:48:48.213Z,100060.23
2018-08-13T16:51:16.755Z,100057.56
2018-08-13T16:53:45.244Z,100054.64
2018-08-13T16:56:13.725Z,100054.25
2018-08-13T16:58:42.224Z,100054.47
2018-08-13T17:01:10.672Z,100046.22
2018-08-13T17:03:39.143Z,100046.31
2018-08-13T17:06:07.699Z,100044.10
2018-08-13T17:08:36.183Z,100044.20
2018-08-13T17:11:04.660Z,100044.17
2018-08-13T17:13:33.124Z,100045.79
2018-08-13T17:16:01.633Z,100046.14
2018-08-13T17:18:30.401Z,100042.16
2018-08-13T17:20:58.958Z,100042.50
2018-08-13T17:23:27.463Z,100046.86
2018-08-13T17:25:55.921Z,100044.92
2018-08-13T17:28:24.360Z,100041.72
2018-08-13T17:30:53.132Z,100042.84
2018-08-13T17:33:21.578Z,100047.09
2018-08-13T17:35:50.355Z,100054.37
2018-08-13T17:38:18.845Z,100050.02
2018-08-13T17:40:47.331Z,100061.14
2018-08-13T17:43:16.001Z,100063.58
2018-08-13T17:45:44.386Z,100064.76
2018-08-13T17:48:12.865Z,100057.70
2018-08-13T17:50:41.380Z,100058.81
2018-08-13T17:53:11.601Z,100054.13
2018-08-13T17:55:40.264Z,100067.69
2018-08-13T17:58:08.838Z,100067.02
2018-08-13T18:00:37.312Z,100066.61
2018-08-13T18:03:06.013Z,100065.54
2018-08-13T18:05:34.493Z,100081.40
2018-08-13T18:08:03.084Z,100073.08
2018-08-13T18:10:32.832Z,100072.06
2018-08-13T18:13:02.766Z,100083.34
2018-08-13T18:15:31.385Z,100079.62
2018-08-13T18:17:59.918Z,100083.20
2018-08-13T18:20:28.406Z,100091.55
2018-08-13T18:22:56.915Z,100095.05
2018-08-13T18:25:25.378Z,100099.05
2018-08-13T18:27:53.873Z,100104.80
2018-08-13T18:30:24.400Z,100104.02
2018-08-13T18:32:53.393Z,100105.72
2018-08-13T18:35:21.888Z,100098.84
2018-08-13T18:37:50.378Z,100107.70
2018-08-13T18:40:24.454Z,100110.84
2018-08-13T18:42:53.179Z,100112.70
2018-08-13T18:45:21.675Z,100044.25
2018-08-13T18:47:50.589Z,100118.11
2018-08-13T18:50:21.010Z,100123.75
2018-08-13T18:52:49.437Z,100119.73
2018-08-13T18:55:20.078Z,100114.09
2018-08-13T18:57:49.010Z,100117.98
2018-08-13T19:00:18.964Z,100122.27
2018-08-13T19:02:47.682Z,100121.55
2018-08-13T19:05:17.536Z,100130.23
2018-08-13T19:07:46.619Z,100134.33
2018-08-13T19:10:15.940Z,100139.77
2018-08-13T19:12:44.420Z,100129.46
2018-08-13T19:15:15.444Z,100138.58
2018-08-13T19:17:44.040Z,100136.54
2018-08-13T19:20:13.508Z,100135.39
2018-08-13T19:22:42.288Z,100135.80
2018-08-13T19:25:28.979Z,100135.94
2018-08-13T19:27:57.461Z,100144.16
2018-08-13T19:30:26.484Z,100148.31
2018-08-13T19:32:55.322Z,100150.05
2018-08-13T19:35:23.724Z,100159.72
2018-08-13T19:37:52.251Z,100156.67
2018-08-13T19:40:22.640Z,100157.23
2018-08-13T19:42:51.468Z,100152.95
2018-08-13T19:45:20.760Z,100159.12
2018-08-13T19:47:49.805Z,100157.02
2018-08-13T19:50:19.167Z,100160.42
2018-08-13T19:52:48.636Z,100169.93
2018-08-13T19:55:17.757Z,100170.17
2018-08-13T19:57:46.275Z,100180.95
2018-08-13T20:00:17.855Z,100180.29
2018-08-13T20:02:46.857Z,100184.31
2018-08-13T20:05:15.371Z,100187.58
2018-08-13T20:07:43.799Z,100193.56
2018-08-13T20:10:13.630Z,100197.09
2018-08-13T20:12:42.713Z,100196.11
2018-08-13T20:15:11.540Z,100197.49
2018-08-13T20:17:40.217Z,100196.56
2018-08-13T20:20:11.321Z,100199.28
2018-08-13T20:22:39.798Z,100199.37
2018-08-13T20:25:09.899Z,100201.20
2018-08-13T20:27:38.712Z,100200.84
2018-08-13T20:30:09.108Z,100195.57
2018-08-13T20:32:37.611Z,100198.20
2018-08-13T20:35:06.059Z,100198.39
2018-08-13T20:37:34.571Z,100202.59
2018-08-13T20:40:03.080Z,100200.58
2018-08-13T20:42:31.521Z,100202.36
2018-08-13T20:45:00.415Z,100208.42
2018-08-13T20:47:28.968Z,100203.34
2018-08-13T20:49:57.462Z,100205.48
2018-08-13T20:52:26.012Z,100207.63
2018-08-13T20:54:55.136Z,100207.63
2018-08-13T20:57:24.204Z,100206.41
2018-08-13T20:59:52.661Z,100209.94
2018-08-13T21:02:21.127Z,100209.54
2018-08-13T21:04:49.621Z,100216.05
2018-08-13T21:07:18.153Z,100221.75
2018-08-13T21:09:46.622Z,100221.35
2018-08-13T21:12:15.605Z,100220.14
2018-08-13T21:14:44.080Z,100223.22
2018-08-13T21:17:12.531Z,100225.40
2018-08-13T21:19:40.994Z,100231.47
2018-08-13T21:22:09.581Z,100231.91
2018-08-13T21:24:40.173Z,100238.88
2018-08-13T21:27:08.583Z,100235.88
2018-08-13T21:29:37.004Z,100233.37
2018-08-13T21:32:05.892Z,100235.47
2018-08-13T21:34:34.364Z,100240.17
2018-08-13T21:37:02.805Z,100240.61
2018-08-13T21:39:31.298Z,100247.97
2018-08-13T21:41:59.776Z,100242.88
2018-08-13T21:44:28.281Z,100249.98
2018-08-13T21:46:56.797Z,100251.40
2018-08-13T21:49:25.264Z,100250.99
2018-08-13T21:51:53.688Z,100253.14
2018-08-13T21:54:22.193Z,100252.25
2018-08-13T21:56:50.629Z,100253.66
2018-08-13T21:59:19.063Z,100253.21
2018-08-13T22:01:48.145Z,100261.58
2018-08-13T22:04:18.056Z,100260.72
2018-08-13T22:06:47.069Z,100258.95
2018-08-13T22:09:15.569Z,100252.89
2018-08-13T22:11:43.997Z,100260.66
2018-08-13T22:14:12.499Z,100260.24
2018-08-13T22:16:40.941Z,100264.97
2018-08-13T22:19:10.273Z,100267.96
2018-08-13T22:21:38.719Z,100273.63
2018-08-13T22:24:18.324Z,100264.56
2018-08-13T22:26:46.762Z,100268.93
2018-08-13T22:29:15.168Z,100267.19
2018-08-13T22:31:43.657Z,100275.80
2018-08-13T22:34:12.173Z,100272.77
2018-08-13T22:36:40.671Z,100283.11
2018-08-13T22:39:09.847Z,100273.66
2018-08-13T22:41:38.424Z,100233.95
2018-08-13T22:44:07.008Z,100282.00
2018-08-13T22:46:35.656Z,100286.28
2018-08-13T22:49:04.239Z,100282.84
2018-08-13T22:51:32.760Z,100286.24
2018-08-13T22:54:01.257Z,100292.67
2018-08-13T22:56:29.702Z,100292.27
2018-08-13T22:58:58.167Z,100295.34
2018-08-13T23:01:26.584Z,100303.91
2018-08-13T23:03:55.349Z,100302.46
2018-08-13T23:06:23.821Z,100300.65
2018-08-13T23:08:52.274Z,100301.05
2018-08-13T23:11:20.732Z,100306.75
2018-08-13T23:13:49.128Z,100307.92
2018-08-13T23:16:17.652Z,100307.45
2018-08-13T23:18:46.023Z,100309.22
2018-08-13T23:21:14.444Z,100310.44
2018-08-13T23:23:42.963Z,100313.88
2018-08-13T23:26:11.386Z,100316.14
2018-08-13T23:28:39.869Z,100312.66
2018-08-13T23:31:08.300Z,100316.91
2018-08-13T23:33:36.776Z,100318.20
2018-08-13T23:36:05.231Z,100325.97
2018-08-13T23:38:33.643Z,100331.22
2018-08-13T23:41:02.133Z,100337.69
2018-08-13T23:43:31.396Z,100338.46
2018-08-13T23:45:59.849Z,100339.39
2018-08-13T23:48:28.304Z,100337.66
2018-08-13T23:50:56.800Z,100332.88
2018-08-13T23:53:25.307Z,100336.72
2018-08-13T23:55:54.033Z,100335.02
2018-08-13T23:58:22.575Z,100336.28
